Portada
METAR-TAF:

METAR-TAF

Aeropuertos :

Aeropuerto de Malabo-Santa Isabel

Malabo, Guinea Ecuatorial

latitud: 03-45-18N, longitud: 08-42-31E, altitud: 23 m

METAR: falta

Hora: 15:33 (14:33 UTC)

Pronóstico

El informe se hizo hace 3 horas y 33 minutos, a las 11:00 UTC
Pronóstico válido del 24 a las 12 UTC al 25 a las 18 UTC
Viento 8 kt del oeste-suroeste
Visibilidad 10 km o más
Nubes dispersas a una altura de 1000 ft
Escasas nubes a una altura de 2000 ft, Cumulonimbus.
Temporalmente
del 24 a las 23 UTC al 25 a las 06 UTC
tormenta
Probabilidad 30% :
Temporalmente
del 25 a las 12 UTC al 25 a las 16 UTC
Cielo nuboso a una altura de 1000 ft
Escasas nubes a una altura de 2000 ft, Cumulonimbus.

TAF: FGSL 241100Z 2412/2518 24008KT 9999 SCT010 FEW020CB TEMPO 2423/2506 TS PROB30 TEMPO 2512/2516 BKN010 FEW020CB

Observaciones y pronósticos meteorológicos de más de 4000 aeropuertos (mensajes METAR y TAF).

Los puntos amarillos y rojos representan las estaciones disponibles.

Ponga el ratón en el punto deseado para ver el nombre de la estación.

Haga clic para ver las observaciones y los pronósticos meteorológicos.

Para cambiar el mapa : haga clic en los botones verdes con una cruz de color negro para hacer un zoom, en el botón verde con un guión para alejar o en las flechas verdes para mapas adyacentes.


METAR-TAF: